sensor_id;sensor_type;location;lat;lon;timestamp;temperature;humidity
16128;DHT22;8168;49.036;7.690;2023-04-08T00:00:30;9.30;99.90
16128;DHT22;8168;49.036;7.690;2023-04-08T00:03:01;9.20;99.90
16128;DHT22;8168;49.036;7.690;2023-04-08T00:05:33;9.20;99.90
16128;DHT22;8168;49.036;7.690;2023-04-08T00:08:04;9.20;99.90
16128;DHT22;8168;49.036;7.690;2023-04-08T00:10:35;9.10;99.90
16128;DHT22;8168;49.036;7.690;2023-04-08T00:13:06;9.10;99.90
16128;DHT22;8168;49.036;7.690;2023-04-08T00:15:37;9.10;99.90
16128;DHT22;8168;49.036;7.690;2023-04-08T00:18:07;9.10;99.90
16128;DHT22;8168;49.036;7.690;2023-04-08T00:20:38;9.00;99.90
16128;DHT22;8168;49.036;7.690;2023-04-08T00:23:08;9.10;99.90
16128;DHT22;8168;49.036;7.690;2023-04-08T00:25:39;9.00;99.90
16128;DHT22;8168;49.036;7.690;2023-04-08T00:28:10;9.00;99.90
16128;DHT22;8168;49.036;7.690;2023-04-08T00:30:41;9.00;99.90
16128;DHT22;8168;49.036;7.690;2023-04-08T00:33:11;9.00;99.90
16128;DHT22;8168;49.036;7.690;2023-04-08T00:35:42;9.00;99.90
16128;DHT22;8168;49.036;7.690;2023-04-08T00:38:12;8.90;99.90
16128;DHT22;8168;49.036;7.690;2023-04-08T00:40:43;8.90;99.90
16128;DHT22;8168;49.036;7.690;2023-04-08T00:43:14;8.90;99.90
16128;DHT22;8168;49.036;7.690;2023-04-08T00:45:46;8.80;99.90
16128;DHT22;8168;49.036;7.690;2023-04-08T00:48:17;8.80;99.90
16128;DHT22;8168;49.036;7.690;2023-04-08T00:50:48;8.80;99.90
16128;DHT22;8168;49.036;7.690;2023-04-08T00:53:19;8.70;99.90
16128;DHT22;8168;49.036;7.690;2023-04-08T00:55:49;8.70;99.90
16128;DHT22;8168;49.036;7.690;2023-04-08T00:58:20;8.70;99.90
16128;DHT22;8168;49.036;7.690;2023-04-08T01:06:50;8.70;99.90
16128;DHT22;8168;49.036;7.690;2023-04-08T01:09:27;8.70;99.90
16128;DHT22;8168;49.036;7.690;2023-04-08T01:12:01;8.70;99.90
16128;DHT22;8168;49.036;7.690;2023-04-08T01:14:35;8.70;99.90
16128;DHT22;8168;49.036;7.690;2023-04-08T01:17:08;8.70;99.90
16128;DHT22;8168;49.036;7.690;2023-04-08T01:19:40;8.70;99.90
16128;DHT22;8168;49.036;7.690;2023-04-08T01:25:35;8.60;99.90
16128;DHT22;8168;49.036;7.690;2023-04-08T01:28:11;8.60;99.90
16128;DHT22;8168;49.036;7.690;2023-04-08T01:30:43;8.60;99.90
16128;DHT22;8168;49.036;7.690;2023-04-08T01:33:17;8.60;99.90
16128;DHT22;8168;49.036;7.690;2023-04-08T01:35:53;8.60;99.90
16128;DHT22;8168;49.036;7.690;2023-04-08T01:38:25;8.60;99.90
16128;DHT22;8168;49.036;7.690;2023-04-08T01:40:56;8.70;99.90
16128;DHT22;8168;49.036;7.690;2023-04-08T01:43:27;8.70;99.90
16128;DHT22;8168;49.036;7.690;2023-04-08T01:45:59;8.60;99.90
16128;DHT22;8168;49.036;7.690;2023-04-08T01:48:31;8.70;99.90
16128;DHT22;8168;49.036;7.690;2023-04-08T01:51:04;8.60;99.90
16128;DHT22;8168;49.036;7.690;2023-04-08T01:53:35;8.60;99.90
16128;DHT22;8168;49.036;7.690;2023-04-08T01:56:10;8.60;99.90
16128;DHT22;8168;49.036;7.690;2023-04-08T01:58:47;8.60;99.90
16128;DHT22;8168;49.036;7.690;2023-04-08T02:01:21;8.60;99.90
16128;DHT22;8168;49.036;7.690;2023-04-08T02:03:55;8.60;99.90
16128;DHT22;8168;49.036;7.690;2023-04-08T02:06:28;8.60;99.90
16128;DHT22;8168;49.036;7.690;2023-04-08T02:08:59;8.60;99.90
16128;DHT22;8168;49.036;7.690;2023-04-08T02:11:31;8.60;99.90
16128;DHT22;8168;49.036;7.690;2023-04-08T02:14:01;8.60;99.90
16128;DHT22;8168;49.036;7.690;2023-04-08T02:16:49;8.60;99.90
16128;DHT22;8168;49.036;7.690;2023-04-08T02:19:30;8.60;99.90
16128;DHT22;8168;49.036;7.690;2023-04-08T02:22:11;8.50;99.90
16128;DHT22;8168;49.036;7.690;2023-04-08T02:24:46;8.50;99.90
16128;DHT22;8168;49.036;7.690;2023-04-08T02:27:17;8.50;99.90
16128;DHT22;8168;49.036;7.690;2023-04-08T02:29:49;8.50;99.90
16128;DHT22;8168;49.036;7.690;2023-04-08T02:32:22;8.50;99.90
16128;DHT22;8168;49.036;7.690;2023-04-08T02:34:53;8.50;99.90
16128;DHT22;8168;49.036;7.690;2023-04-08T02:37:27;8.50;99.90
16128;DHT22;8168;49.036;7.690;2023-04-08T02:39:58;8.50;99.90
16128;DHT22;8168;49.036;7.690;2023-04-08T02:42:28;8.50;99.90
16128;DHT22;8168;49.036;7.690;2023-04-08T02:44:59;8.50;99.90
16128;DHT22;8168;49.036;7.690;2023-04-08T02:47:29;8.50;99.90
16128;DHT22;8168;49.036;7.690;2023-04-08T02:50:00;8.50;99.90
16128;DHT22;8168;49.036;7.690;2023-04-08T02:52:31;8.50;99.90
16128;DHT22;8168;49.036;7.690;2023-04-08T02:55:01;8.50;99.90
16128;DHT22;8168;49.036;7.690;2023-04-08T02:57:32;8.50;99.90
16128;DHT22;8168;49.036;7.690;2023-04-08T03:00:03;8.50;99.90
16128;DHT22;8168;49.036;7.690;2023-04-08T03:02:34;8.50;99.90
16128;DHT22;8168;49.036;7.690;2023-04-08T03:05:06;8.50;99.90
16128;DHT22;8168;49.036;7.690;2023-04-08T03:07:36;8.50;99.90
16128;DHT22;8168;49.036;7.690;2023-04-08T03:10:07;8.50;99.90
16128;DHT22;8168;49.036;7.690;2023-04-08T03:12:38;8.50;99.90
16128;DHT22;8168;49.036;7.690;2023-04-08T03:15:09;8.50;99.90
16128;DHT22;8168;49.036;7.690;2023-04-08T03:17:39;8.50;99.90
16128;DHT22;8168;49.036;7.690;2023-04-08T03:20:10;8.50;99.90
16128;DHT22;8168;49.036;7.690;2023-04-08T03:22:41;10.00;99.90
16128;DHT22;8168;49.036;7.690;2023-04-08T03:25:12;8.50;99.90
16128;DHT22;8168;49.036;7.690;2023-04-08T03:27:42;8.50;99.90
16128;DHT22;8168;49.036;7.690;2023-04-08T03:30:13;8.50;99.90
16128;DHT22;8168;49.036;7.690;2023-04-08T03:32:43;8.50;99.90
16128;DHT22;8168;49.036;7.690;2023-04-08T03:35:14;8.50;99.90
16128;DHT22;8168;49.036;7.690;2023-04-08T03:37:45;8.50;99.90
16128;DHT22;8168;49.036;7.690;2023-04-08T03:40:16;8.50;99.90
16128;DHT22;8168;49.036;7.690;2023-04-08T03:42:46;8.50;99.90
16128;DHT22;8168;49.036;7.690;2023-04-08T03:45:17;8.50;99.90
16128;DHT22;8168;49.036;7.690;2023-04-08T03:47:48;8.50;99.90
16128;DHT22;8168;49.036;7.690;2023-04-08T03:50:18;8.50;99.90
16128;DHT22;8168;49.036;7.690;2023-04-08T03:52:49;8.40;99.90
16128;DHT22;8168;49.036;7.690;2023-04-08T03:55:20;8.50;99.90
16128;DHT22;8168;49.036;7.690;2023-04-08T03:57:50;8.40;99.90
16128;DHT22;8168;49.036;7.690;2023-04-08T04:00:21;8.50;99.90
16128;DHT22;8168;49.036;7.690;2023-04-08T04:02:52;8.50;99.90
16128;DHT22;8168;49.036;7.690;2023-04-08T04:05:22;8.50;99.90
16128;DHT22;8168;49.036;7.690;2023-04-08T04:07:53;8.50;99.90
16128;DHT22;8168;49.036;7.690;2023-04-08T04:10:24;8.50;99.90
16128;DHT22;8168;49.036;7.690;2023-04-08T04:12:54;8.50;99.90
16128;DHT22;8168;49.036;7.690;2023-04-08T04:15:25;8.50;99.90
16128;DHT22;8168;49.036;7.690;2023-04-08T04:17:56;8.50;99.90
16128;DHT22;8168;49.036;7.690;2023-04-08T04:20:26;8.50;99.90
16128;DHT22;8168;49.036;7.690;2023-04-08T04:22:59;8.50;99.90
16128;DHT22;8168;49.036;7.690;2023-04-08T04:25:30;8.40;99.90
16128;DHT22;8168;49.036;7.690;2023-04-08T04:28:00;8.40;99.90
16128;DHT22;8168;49.036;7.690;2023-04-08T04:30:32;8.40;99.90
16128;DHT22;8168;49.036;7.690;2023-04-08T04:33:03;8.40;99.90
16128;DHT22;8168;49.036;7.690;2023-04-08T04:35:34;8.40;99.90
16128;DHT22;8168;49.036;7.690;2023-04-08T04:38:05;8.40;99.90
16128;DHT22;8168;49.036;7.690;2023-04-08T04:40:41;8.40;99.90
16128;DHT22;8168;49.036;7.690;2023-04-08T04:43:13;8.40;99.90
16128;DHT22;8168;49.036;7.690;2023-04-08T04:45:44;8.40;99.90
16128;DHT22;8168;49.036;7.690;2023-04-08T04:48:14;8.40;99.90
16128;DHT22;8168;49.036;7.690;2023-04-08T04:50:57;8.40;99.90
16128;DHT22;8168;49.036;7.690;2023-04-08T04:53:29;8.40;99.90
16128;DHT22;8168;49.036;7.690;2023-04-08T04:56:00;8.50;99.90
16128;DHT22;8168;49.036;7.690;2023-04-08T04:58:31;8.40;99.90
16128;DHT22;8168;49.036;7.690;2023-04-08T05:01:01;8.40;99.90
16128;DHT22;8168;49.036;7.690;2023-04-08T05:03:32;8.40;99.90
16128;DHT22;8168;49.036;7.690;2023-04-08T05:06:03;8.50;99.90
16128;DHT22;8168;49.036;7.690;2023-04-08T05:08:33;8.40;99.90
16128;DHT22;8168;49.036;7.690;2023-04-08T05:11:08;8.40;99.90
16128;DHT22;8168;49.036;7.690;2023-04-08T05:13:39;8.40;99.90
16128;DHT22;8168;49.036;7.690;2023-04-08T05:16:09;8.40;99.90
16128;DHT22;8168;49.036;7.690;2023-04-08T05:18:40;8.40;99.90
16128;DHT22;8168;49.036;7.690;2023-04-08T05:21:11;8.40;99.90
16128;DHT22;8168;49.036;7.690;2023-04-08T05:23:41;8.40;99.90
16128;DHT22;8168;49.036;7.690;2023-04-08T05:26:12;8.40;99.90
16128;DHT22;8168;49.036;7.690;2023-04-08T05:28:43;8.40;99.90
16128;DHT22;8168;49.036;7.690;2023-04-08T05:31:17;8.50;99.90
16128;DHT22;8168;49.036;7.690;2023-04-08T05:33:48;8.40;99.90
16128;DHT22;8168;49.036;7.690;2023-04-08T05:36:19;8.50;99.90
16128;DHT22;8168;49.036;7.690;2023-04-08T05:38:49;8.50;99.90
16128;DHT22;8168;49.036;7.690;2023-04-08T05:41:20;8.50;99.90
16128;DHT22;8168;49.036;7.690;2023-04-08T05:43:51;8.50;99.90
16128;DHT22;8168;49.036;7.690;2023-04-08T05:46:21;8.50;99.90
16128;DHT22;8168;49.036;7.690;2023-04-08T05:48:52;8.60;99.90
16128;DHT22;8168;49.036;7.690;2023-04-08T05:51:22;8.60;99.90
16128;DHT22;8168;49.036;7.690;2023-04-08T05:53:53;8.60;99.90
16128;DHT22;8168;49.036;7.690;2023-04-08T05:56:24;8.60;99.90
16128;DHT22;8168;49.036;7.690;2023-04-08T05:58:54;8.60;99.90
16128;DHT22;8168;49.036;7.690;2023-04-08T06:01:25;8.60;99.90
16128;DHT22;8168;49.036;7.690;2023-04-08T06:03:56;8.60;99.90
16128;DHT22;8168;49.036;7.690;2023-04-08T06:06:26;8.60;99.90
16128;DHT22;8168;49.036;7.690;2023-04-08T06:08:57;8.60;99.90
16128;DHT22;8168;49.036;7.690;2023-04-08T06:11:28;8.60;99.90
16128;DHT22;8168;49.036;7.690;2023-04-08T06:13:58;8.70;99.90
16128;DHT22;8168;49.036;7.690;2023-04-08T06:16:29;8.70;99.90
16128;DHT22;8168;49.036;7.690;2023-04-08T06:18:59;8.70;99.90
16128;DHT22;8168;49.036;7.690;2023-04-08T06:21:30;8.80;99.90
16128;DHT22;8168;49.036;7.690;2023-04-08T06:24:01;8.70;99.90
16128;DHT22;8168;49.036;7.690;2023-04-08T06:26:31;8.70;99.90
16128;DHT22;8168;49.036;7.690;2023-04-08T06:29:02;8.70;99.90
16128;DHT22;8168;49.036;7.690;2023-04-08T06:31:34;8.70;99.90
16128;DHT22;8168;49.036;7.690;2023-04-08T06:34:04;8.70;99.90
16128;DHT22;8168;49.036;7.690;2023-04-08T06:36:35;8.60;99.90
16128;DHT22;8168;49.036;7.690;2023-04-08T06:39:06;8.60;99.90
16128;DHT22;8168;49.036;7.690;2023-04-08T06:41:36;8.70;99.90
16128;DHT22;8168;49.036;7.690;2023-04-08T06:44:07;8.70;99.90
16128;DHT22;8168;49.036;7.690;2023-04-08T06:46:38;8.80;99.90
16128;DHT22;8168;49.036;7.690;2023-04-08T06:49:08;8.90;99.90
16128;DHT22;8168;49.036;7.690;2023-04-08T06:51:39;9.00;99.90
16128;DHT22;8168;49.036;7.690;2023-04-08T06:54:09;9.00;99.90
16128;DHT22;8168;49.036;7.690;2023-04-08T06:56:40;9.00;99.90
16128;DHT22;8168;49.036;7.690;2023-04-08T06:59:11;9.10;99.90
16128;DHT22;8168;49.036;7.690;2023-04-08T07:01:41;9.10;99.90
16128;DHT22;8168;49.036;7.690;2023-04-08T07:04:12;9.10;99.90
16128;DHT22;8168;49.036;7.690;2023-04-08T07:06:42;9.20;99.90
16128;DHT22;8168;49.036;7.690;2023-04-08T07:09:13;9.30;99.90
16128;DHT22;8168;49.036;7.690;2023-04-08T07:11:43;9.30;99.90
16128;DHT22;8168;49.036;7.690;2023-04-08T07:14:14;9.30;99.90
16128;DHT22;8168;49.036;7.690;2023-04-08T07:16:45;9.30;99.90
16128;DHT22;8168;49.036;7.690;2023-04-08T07:19:15;9.30;99.90
16128;DHT22;8168;49.036;7.690;2023-04-08T07:21:46;9.30;99.90
16128;DHT22;8168;49.036;7.690;2023-04-08T07:24:17;9.40;99.90
16128;DHT22;8168;49.036;7.690;2023-04-08T07:26:48;9.50;99.90
16128;DHT22;8168;49.036;7.690;2023-04-08T07:29:19;9.50;99.90
16128;DHT22;8168;49.036;7.690;2023-04-08T07:31:49;9.50;99.90
16128;DHT22;8168;49.036;7.690;2023-04-08T07:34:21;9.50;99.90
16128;DHT22;8168;49.036;7.690;2023-04-08T07:36:51;9.50;99.90
16128;DHT22;8168;49.036;7.690;2023-04-08T07:39:22;9.50;99.90
16128;DHT22;8168;49.036;7.690;2023-04-08T07:41:52;9.50;99.90
16128;DHT22;8168;49.036;7.690;2023-04-08T07:44:23;9.50;99.90
16128;DHT22;8168;49.036;7.690;2023-04-08T07:46:54;9.50;99.90
16128;DHT22;8168;49.036;7.690;2023-04-08T07:49:25;7.60;99.90
16128;DHT22;8168;49.036;7.690;2023-04-08T07:51:56;9.50;99.90
16128;DHT22;8168;49.036;7.690;2023-04-08T07:54:26;9.60;99.90
16128;DHT22;8168;49.036;7.690;2023-04-08T07:56:57;9.60;99.90
16128;DHT22;8168;49.036;7.690;2023-04-08T07:59:31;9.60;99.90
16128;DHT22;8168;49.036;7.690;2023-04-08T08:02:01;9.60;99.90
16128;DHT22;8168;49.036;7.690;2023-04-08T08:04:32;9.70;99.90
16128;DHT22;8168;49.036;7.690;2023-04-08T08:07:03;9.80;99.90
16128;DHT22;8168;49.036;7.690;2023-04-08T08:09:34;9.90;99.90
16128;DHT22;8168;49.036;7.690;2023-04-08T08:12:04;9.90;99.90
16128;DHT22;8168;49.036;7.690;2023-04-08T08:14:35;10.00;99.90
16128;DHT22;8168;49.036;7.690;2023-04-08T08:17:06;10.00;99.90
16128;DHT22;8168;49.036;7.690;2023-04-08T08:19:36;13.50;99.90
16128;DHT22;8168;49.036;7.690;2023-04-08T08:22:07;10.10;99.90
16128;DHT22;8168;49.036;7.690;2023-04-08T08:24:37;10.10;99.90
16128;DHT22;8168;49.036;7.690;2023-04-08T08:27:11;10.20;99.90
16128;DHT22;8168;49.036;7.690;2023-04-08T08:29:42;10.20;99.90
16128;DHT22;8168;49.036;7.690;2023-04-08T08:32:13;10.30;99.90
16128;DHT22;8168;49.036;7.690;2023-04-08T08:34:43;10.30;99.90
16128;DHT22;8168;49.036;7.690;2023-04-08T08:37:14;10.40;99.90
16128;DHT22;8168;49.036;7.690;2023-04-08T08:39:44;10.40;99.90
16128;DHT22;8168;49.036;7.690;2023-04-08T08:42:22;10.50;99.90
16128;DHT22;8168;49.036;7.690;2023-04-08T08:44:53;10.40;99.90
16128;DHT22;8168;49.036;7.690;2023-04-08T08:47:24;10.50;99.90
16128;DHT22;8168;49.036;7.690;2023-04-08T08:49:55;10.50;99.90
16128;DHT22;8168;49.036;7.690;2023-04-08T08:52:25;10.60;99.90
16128;DHT22;8168;49.036;7.690;2023-04-08T08:54:59;10.60;99.90
16128;DHT22;8168;49.036;7.690;2023-04-08T08:57:30;10.70;99.90
16128;DHT22;8168;49.036;7.690;2023-04-08T09:00:01;10.80;99.90
16128;DHT22;8168;49.036;7.690;2023-04-08T09:02:31;10.90;99.90
16128;DHT22;8168;49.036;7.690;2023-04-08T09:05:03;10.90;99.90
16128;DHT22;8168;49.036;7.690;2023-04-08T09:07:35;11.00;99.90
16128;DHT22;8168;49.036;7.690;2023-04-08T09:10:07;11.00;99.90
16128;DHT22;8168;49.036;7.690;2023-04-08T09:12:53;10.90;99.90
16128;DHT22;8168;49.036;7.690;2023-04-08T09:15:25;10.90;99.90
16128;DHT22;8168;49.036;7.690;2023-04-08T09:17:55;11.00;99.90
16128;DHT22;8168;49.036;7.690;2023-04-08T09:20:27;11.00;99.90
16128;DHT22;8168;49.036;7.690;2023-04-08T09:23:01;11.20;99.90
16128;DHT22;8168;49.036;7.690;2023-04-08T09:25:32;11.20;99.90
16128;DHT22;8168;49.036;7.690;2023-04-08T09:28:03;9.40;99.90
16128;DHT22;8168;49.036;7.690;2023-04-08T09:30:34;11.30;99.90
16128;DHT22;8168;49.036;7.690;2023-04-08T09:33:06;11.40;99.90
16128;DHT22;8168;49.036;7.690;2023-04-08T09:35:36;11.50;99.90
16128;DHT22;8168;49.036;7.690;2023-04-08T09:38:08;11.50;99.90
16128;DHT22;8168;49.036;7.690;2023-04-08T09:40:40;11.40;99.90
16128;DHT22;8168;49.036;7.690;2023-04-08T09:43:12;11.60;99.90
16128;DHT22;8168;49.036;7.690;2023-04-08T09:45:48;11.80;99.90
16128;DHT22;8168;49.036;7.690;2023-04-08T09:48:26;11.70;99.90
16128;DHT22;8168;49.036;7.690;2023-04-08T09:50:58;11.80;99.90
16128;DHT22;8168;49.036;7.690;2023-04-08T09:53:37;11.80;99.90
16128;DHT22;8168;49.036;7.690;2023-04-08T09:56:11;11.90;99.90
16128;DHT22;8168;49.036;7.690;2023-04-08T09:58:58;12.10;99.90
16128;DHT22;8168;49.036;7.690;2023-04-08T10:01:36;12.30;99.90
16128;DHT22;8168;49.036;7.690;2023-04-08T10:04:13;12.40;99.90
16128;DHT22;8168;49.036;7.690;2023-04-08T10:06:49;12.60;99.90
16128;DHT22;8168;49.036;7.690;2023-04-08T10:09:23;12.70;99.90
16128;DHT22;8168;49.036;7.690;2023-04-08T10:11:54;12.60;99.90
16128;DHT22;8168;49.036;7.690;2023-04-08T10:14:25;12.50;99.90
16128;DHT22;8168;49.036;7.690;2023-04-08T10:17:27;12.40;99.90
16128;DHT22;8168;49.036;7.690;2023-04-08T10:19:57;12.50;99.90
16128;DHT22;8168;49.036;7.690;2023-04-08T10:27:48;12.60;99.90
16128;DHT22;8168;49.036;7.690;2023-04-08T10:33:00;12.60;99.90
16128;DHT22;8168;49.036;7.690;2023-04-08T10:35:35;12.60;99.90
16128;DHT22;8168;49.036;7.690;2023-04-08T10:38:06;12.60;99.90
16128;DHT22;8168;49.036;7.690;2023-04-08T10:40:38;12.50;99.90
16128;DHT22;8168;49.036;7.690;2023-04-08T10:43:12;12.60;99.90
16128;DHT22;8168;49.036;7.690;2023-04-08T10:45:43;12.60;99.90
16128;DHT22;8168;49.036;7.690;2023-04-08T10:48:19;12.60;99.90
16128;DHT22;8168;49.036;7.690;2023-04-08T10:50:58;12.60;99.90
16128;DHT22;8168;49.036;7.690;2023-04-08T10:53:32;12.60;99.90
16128;DHT22;8168;49.036;7.690;2023-04-08T10:56:13;12.60;99.90
16128;DHT22;8168;49.036;7.690;2023-04-08T10:58:53;12.70;99.90
16128;DHT22;8168;49.036;7.690;2023-04-08T11:01:25;12.80;99.90
16128;DHT22;8168;49.036;7.690;2023-04-08T11:03:58;12.80;99.90
16128;DHT22;8168;49.036;7.690;2023-04-08T11:06:28;12.90;99.90
16128;DHT22;8168;49.036;7.690;2023-04-08T11:09:02;13.10;99.90
16128;DHT22;8168;49.036;7.690;2023-04-08T11:11:33;13.20;99.90
16128;DHT22;8168;49.036;7.690;2023-04-08T11:14:04;13.20;99.90
16128;DHT22;8168;49.036;7.690;2023-04-08T11:16:37;13.20;99.90
16128;DHT22;8168;49.036;7.690;2023-04-08T11:19:07;13.20;99.90
16128;DHT22;8168;49.036;7.690;2023-04-08T11:21:38;13.10;99.90
16128;DHT22;8168;49.036;7.690;2023-04-08T11:24:10;13.10;99.90
16128;DHT22;8168;49.036;7.690;2023-04-08T11:26:43;13.00;99.90
16128;DHT22;8168;49.036;7.690;2023-04-08T11:29:14;13.00;99.90
16128;DHT22;8168;49.036;7.690;2023-04-08T11:31:46;12.90;99.90
16128;DHT22;8168;49.036;7.690;2023-04-08T11:34:22;12.90;99.90
16128;DHT22;8168;49.036;7.690;2023-04-08T11:36:55;12.90;99.90
16128;DHT22;8168;49.036;7.690;2023-04-08T11:39:27;12.80;99.90
16128;DHT22;8168;49.036;7.690;2023-04-08T11:41:58;12.70;99.90
16128;DHT22;8168;49.036;7.690;2023-04-08T11:44:30;12.70;99.90
16128;DHT22;8168;49.036;7.690;2023-04-08T11:47:01;12.60;99.90
16128;DHT22;8168;49.036;7.690;2023-04-08T11:49:45;12.60;99.90
16128;DHT22;8168;49.036;7.690;2023-04-08T11:52:16;12.60;99.90
16128;DHT22;8168;49.036;7.690;2023-04-08T11:54:47;12.60;99.90
16128;DHT22;8168;49.036;7.690;2023-04-08T11:57:27;12.70;99.90
16128;DHT22;8168;49.036;7.690;2023-04-08T11:59:59;12.70;99.90
16128;DHT22;8168;49.036;7.690;2023-04-08T12:02:29;12.70;99.90
16128;DHT22;8168;49.036;7.690;2023-04-08T12:05:00;12.60;99.90
16128;DHT22;8168;49.036;7.690;2023-04-08T12:07:31;12.60;99.90
16128;DHT22;8168;49.036;7.690;2023-04-08T12:10:02;12.60;99.90
16128;DHT22;8168;49.036;7.690;2023-04-08T12:12:33;12.70;99.90
16128;DHT22;8168;49.036;7.690;2023-04-08T12:15:04;12.70;99.90
16128;DHT22;8168;49.036;7.690;2023-04-08T12:17:35;12.70;99.90
16128;DHT22;8168;49.036;7.690;2023-04-08T12:20:06;12.70;99.90
16128;DHT22;8168;49.036;7.690;2023-04-08T12:22:37;12.70;99.90
16128;DHT22;8168;49.036;7.690;2023-04-08T12:25:08;12.70;99.90
16128;DHT22;8168;49.036;7.690;2023-04-08T12:27:39;12.70;99.90
16128;DHT22;8168;49.036;7.690;2023-04-08T12:30:10;12.70;99.90
16128;DHT22;8168;49.036;7.690;2023-04-08T12:32:41;12.70;99.90
16128;DHT22;8168;49.036;7.690;2023-04-08T12:35:12;12.70;99.90
16128;DHT22;8168;49.036;7.690;2023-04-08T12:37:43;12.70;99.90
16128;DHT22;8168;49.036;7.690;2023-04-08T12:40:13;12.60;99.90
16128;DHT22;8168;49.036;7.690;2023-04-08T12:42:44;12.50;99.90
16128;DHT22;8168;49.036;7.690;2023-04-08T12:45:15;12.40;99.90
16128;DHT22;8168;49.036;7.690;2023-04-08T12:47:46;12.40;99.90
16128;DHT22;8168;49.036;7.690;2023-04-08T12:50:16;12.30;99.90
16128;DHT22;8168;49.036;7.690;2023-04-08T12:52:47;12.20;99.90
16128;DHT22;8168;49.036;7.690;2023-04-08T12:55:17;12.10;99.90
16128;DHT22;8168;49.036;7.690;2023-04-08T12:57:48;12.20;99.90
16128;DHT22;8168;49.036;7.690;2023-04-08T13:00:19;12.20;99.90
16128;DHT22;8168;49.036;7.690;2023-04-08T13:02:49;12.20;99.90
16128;DHT22;8168;49.036;7.690;2023-04-08T13:05:20;12.30;99.90
16128;DHT22;8168;49.036;7.690;2023-04-08T13:07:50;12.30;99.90
16128;DHT22;8168;49.036;7.690;2023-04-08T13:10:21;12.30;99.90
16128;DHT22;8168;49.036;7.690;2023-04-08T13:12:52;12.30;99.90
16128;DHT22;8168;49.036;7.690;2023-04-08T13:15:22;12.40;99.90
16128;DHT22;8168;49.036;7.690;2023-04-08T13:17:53;12.40;99.90
16128;DHT22;8168;49.036;7.690;2023-04-08T13:20:24;12.50;99.90
16128;DHT22;8168;49.036;7.690;2023-04-08T13:22:55;12.60;99.90
16128;DHT22;8168;49.036;7.690;2023-04-08T13:25:26;12.60;99.90
16128;DHT22;8168;49.036;7.690;2023-04-08T13:27:56;12.70;99.90
16128;DHT22;8168;49.036;7.690;2023-04-08T13:30:27;12.70;99.90
16128;DHT22;8168;49.036;7.690;2023-04-08T13:32:57;12.70;99.90
16128;DHT22;8168;49.036;7.690;2023-04-08T13:35:28;12.80;99.90
16128;DHT22;8168;49.036;7.690;2023-04-08T13:37:59;12.90;99.90
16128;DHT22;8168;49.036;7.690;2023-04-08T13:40:29;13.00;99.90
16128;DHT22;8168;49.036;7.690;2023-04-08T13:43:01;13.00;99.90
16128;DHT22;8168;49.036;7.690;2023-04-08T13:45:31;13.10;99.90
16128;DHT22;8168;49.036;7.690;2023-04-08T13:48:02;13.20;99.90
16128;DHT22;8168;49.036;7.690;2023-04-08T13:50:34;13.20;99.90
16128;DHT22;8168;49.036;7.690;2023-04-08T13:53:04;13.20;99.90
16128;DHT22;8168;49.036;7.690;2023-04-08T13:55:35;13.30;99.90
16128;DHT22;8168;49.036;7.690;2023-04-08T13:58:05;13.30;99.90
16128;DHT22;8168;49.036;7.690;2023-04-08T14:00:36;13.30;99.90
16128;DHT22;8168;49.036;7.690;2023-04-08T14:03:07;13.20;99.90
16128;DHT22;8168;49.036;7.690;2023-04-08T14:05:37;13.20;99.90
16128;DHT22;8168;49.036;7.690;2023-04-08T14:08:08;13.20;99.90
16128;DHT22;8168;49.036;7.690;2023-04-08T14:10:39;13.30;99.90
16128;DHT22;8168;49.036;7.690;2023-04-08T14:13:11;13.30;99.90
16128;DHT22;8168;49.036;7.690;2023-04-08T14:15:41;13.20;99.90
16128;DHT22;8168;49.036;7.690;2023-04-08T14:18:12;13.20;99.90
16128;DHT22;8168;49.036;7.690;2023-04-08T14:20:43;13.10;99.90
16128;DHT22;8168;49.036;7.690;2023-04-08T14:23:13;13.10;99.90
16128;DHT22;8168;49.036;7.690;2023-04-08T14:25:44;13.10;99.90
16128;DHT22;8168;49.036;7.690;2023-04-08T14:28:14;13.30;99.90
16128;DHT22;8168;49.036;7.690;2023-04-08T14:30:45;13.30;99.90
16128;DHT22;8168;49.036;7.690;2023-04-08T14:33:16;13.30;99.90
16128;DHT22;8168;49.036;7.690;2023-04-08T14:35:48;13.20;99.90
16128;DHT22;8168;49.036;7.690;2023-04-08T14:38:18;13.20;99.90
16128;DHT22;8168;49.036;7.690;2023-04-08T14:40:50;13.20;99.90
16128;DHT22;8168;49.036;7.690;2023-04-08T14:43:21;13.30;99.90
16128;DHT22;8168;49.036;7.690;2023-04-08T14:45:52;13.30;99.90
16128;DHT22;8168;49.036;7.690;2023-04-08T14:48:22;13.30;99.90
16128;DHT22;8168;49.036;7.690;2023-04-08T14:50:56;13.30;99.90
16128;DHT22;8168;49.036;7.690;2023-04-08T14:53:26;13.30;99.90
16128;DHT22;8168;49.036;7.690;2023-04-08T14:55:57;13.30;99.90
16128;DHT22;8168;49.036;7.690;2023-04-08T14:58:27;13.40;99.90
16128;DHT22;8168;49.036;7.690;2023-04-08T15:00:58;13.30;99.90
16128;DHT22;8168;49.036;7.690;2023-04-08T15:03:29;13.30;99.90
16128;DHT22;8168;49.036;7.690;2023-04-08T15:05:59;13.30;99.90
16128;DHT22;8168;49.036;7.690;2023-04-08T15:08:30;13.30;99.90
16128;DHT22;8168;49.036;7.690;2023-04-08T15:11:01;13.30;99.90
16128;DHT22;8168;49.036;7.690;2023-04-08T15:13:32;13.30;99.90
16128;DHT22;8168;49.036;7.690;2023-04-08T15:16:02;13.30;99.90
16128;DHT22;8168;49.036;7.690;2023-04-08T15:18:33;13.30;99.90
16128;DHT22;8168;49.036;7.690;2023-04-08T15:21:04;13.30;99.90
16128;DHT22;8168;49.036;7.690;2023-04-08T15:23:34;13.30;99.90
16128;DHT22;8168;49.036;7.690;2023-04-08T15:26:06;13.30;99.90
16128;DHT22;8168;49.036;7.690;2023-04-08T15:28:36;13.30;99.90
16128;DHT22;8168;49.036;7.690;2023-04-08T15:31:07;13.30;99.90
16128;DHT22;8168;49.036;7.690;2023-04-08T15:33:38;13.20;99.90
16128;DHT22;8168;49.036;7.690;2023-04-08T15:36:10;13.10;99.90
16128;DHT22;8168;49.036;7.690;2023-04-08T15:38:41;13.00;99.90
16128;DHT22;8168;49.036;7.690;2023-04-08T15:41:16;12.90;99.90
16128;DHT22;8168;49.036;7.690;2023-04-08T15:43:51;12.90;99.90
16128;DHT22;8168;49.036;7.690;2023-04-08T15:46:22;12.90;99.90
16128;DHT22;8168;49.036;7.690;2023-04-08T15:48:53;13.00;99.90
16128;DHT22;8168;49.036;7.690;2023-04-08T15:51:24;13.00;99.90
16128;DHT22;8168;49.036;7.690;2023-04-08T15:53:56;13.00;99.90
16128;DHT22;8168;49.036;7.690;2023-04-08T15:56:26;13.00;99.90
16128;DHT22;8168;49.036;7.690;2023-04-08T15:58:58;13.00;99.90
16128;DHT22;8168;49.036;7.690;2023-04-08T16:01:29;13.10;99.90
16128;DHT22;8168;49.036;7.690;2023-04-08T16:04:00;13.10;99.90
16128;DHT22;8168;49.036;7.690;2023-04-08T16:06:31;13.10;99.90
16128;DHT22;8168;49.036;7.690;2023-04-08T16:09:02;13.20;99.90
16128;DHT22;8168;49.036;7.690;2023-04-08T16:11:33;13.20;99.90
16128;DHT22;8168;49.036;7.690;2023-04-08T16:14:04;13.20;99.90
16128;DHT22;8168;49.036;7.690;2023-04-08T16:16:34;13.20;99.90
16128;DHT22;8168;49.036;7.690;2023-04-08T16:19:07;13.20;99.90
16128;DHT22;8168;49.036;7.690;2023-04-08T16:21:38;13.10;99.90
16128;DHT22;8168;49.036;7.690;2023-04-08T16:24:08;13.00;99.90
16128;DHT22;8168;49.036;7.690;2023-04-08T16:26:39;13.00;99.90
16128;DHT22;8168;49.036;7.690;2023-04-08T16:29:10;13.00;99.90
16128;DHT22;8168;49.036;7.690;2023-04-08T16:31:40;13.00;99.90
16128;DHT22;8168;49.036;7.690;2023-04-08T16:34:11;13.00;99.90
16128;DHT22;8168;49.036;7.690;2023-04-08T16:36:42;13.00;99.90
16128;DHT22;8168;49.036;7.690;2023-04-08T16:39:13;12.90;99.90